sensor_id;sensor_type;location;lat;lon;timestamp;pressure;altitude;pressure_sealevel;temperature;humidity
71392;BME280;59205;50.610;12.638;2022-11-20T00:00:54;95066.06;;;-7.62;100.00
71392;BME280;59205;50.610;12.638;2022-11-20T00:03:20;95064.56;;;-7.63;100.00
71392;BME280;59205;50.610;12.638;2022-11-20T00:05:46;95068.25;;;-7.67;100.00
71392;BME280;59205;50.610;12.638;2022-11-20T00:08:11;95074.69;;;-7.61;100.00
71392;BME280;59205;50.610;12.638;2022-11-20T00:10:38;95078.41;;;-7.66;100.00
71392;BME280;59205;50.610;12.638;2022-11-20T00:13:04;95074.56;;;-7.72;100.00
71392;BME280;59205;50.610;12.638;2022-11-20T00:15:30;95072.63;;;-7.75;100.00
71392;BME280;59205;50.610;12.638;2022-11-20T00:17:56;95066.34;;;-7.67;100.00
71392;BME280;59205;50.610;12.638;2022-11-20T00:20:21;95073.50;;;-7.67;100.00
71392;BME280;59205;50.610;12.638;2022-11-20T00:22:47;95068.63;;;-7.65;100.00
71392;BME280;59205;50.610;12.638;2022-11-20T00:25:12;95064.56;;;-7.59;100.00
71392;BME280;59205;50.610;12.638;2022-11-20T00:27:38;95072.06;;;-7.61;100.00
71392;BME280;59205;50.610;12.638;2022-11-20T00:30:05;95070.22;;;-7.61;99.99
71392;BME280;59205;50.610;12.638;2022-11-20T00:32:30;95055.81;;;-7.70;99.69
71392;BME280;59205;50.610;12.638;2022-11-20T00:34:56;95061.72;;;-7.77;100.00
71392;BME280;59205;50.610;12.638;2022-11-20T00:37:21;95065.41;;;-7.81;100.00
71392;BME280;59205;50.610;12.638;2022-11-20T00:39:47;95071.84;;;-7.79;100.00
71392;BME280;59205;50.610;12.638;2022-11-20T00:42:12;95067.38;;;-7.75;99.97
71392;BME280;59205;50.610;12.638;2022-11-20T00:44:38;95066.84;;;-7.87;100.00
71392;BME280;59205;50.610;12.638;2022-11-20T00:47:03;95069.94;;;-7.52;99.96
71392;BME280;59205;50.610;12.638;2022-11-20T00:49:29;95075.47;;;-7.61;99.96
71392;BME280;59205;50.610;12.638;2022-11-20T00:51:54;95073.84;;;-7.69;100.00
71392;BME280;59205;50.610;12.638;2022-11-20T00:54:20;95075.63;;;-7.76;100.00
71392;BME280;59205;50.610;12.638;2022-11-20T00:56:45;95068.75;;;-7.84;99.63
71392;BME280;59205;50.610;12.638;2022-11-20T00:59:11;95071.69;;;-7.89;99.80
71392;BME280;59205;50.610;12.638;2022-11-20T01:01:37;95069.13;;;-7.86;100.00
71392;BME280;59205;50.610;12.638;2022-11-20T01:04:03;95068.00;;;-7.85;100.00
71392;BME280;59205;50.610;12.638;2022-11-20T01:06:34;95066.03;;;-7.91;99.83
71392;BME280;59205;50.610;12.638;2022-11-20T01:09:06;95067.88;;;-7.95;100.00
71392;BME280;59205;50.610;12.638;2022-11-20T01:11:35;95074.16;;;-8.00;100.00
71392;BME280;59205;50.610;12.638;2022-11-20T01:14:03;95070.50;;;-7.95;99.70
71392;BME280;59205;50.610;12.638;2022-11-20T01:16:31;95068.91;;;-8.00;99.89
71392;BME280;59205;50.610;12.638;2022-11-20T01:18:59;95057.84;;;-8.12;100.00
71392;BME280;59205;50.610;12.638;2022-11-20T01:21:28;95059.47;;;-8.04;100.00
71392;BME280;59205;50.610;12.638;2022-11-20T01:23:55;95048.63;;;-8.03;100.00
71392;BME280;59205;50.610;12.638;2022-11-20T01:26:24;95047.13;;;-8.00;100.00
71392;BME280;59205;50.610;12.638;2022-11-20T01:28:50;95040.66;;;-8.06;100.00
71392;BME280;59205;50.610;12.638;2022-11-20T01:31:20;95037.34;;;-8.03;100.00
71392;BME280;59205;50.610;12.638;2022-11-20T01:33:48;95033.84;;;-8.11;99.98
71392;BME280;59205;50.610;12.638;2022-11-20T01:36:15;95035.81;;;-8.04;100.00
71392;BME280;59205;50.610;12.638;2022-11-20T01:38:41;95037.38;;;-8.00;99.91
71392;BME280;59205;50.610;12.638;2022-11-20T01:41:08;95042.00;;;-7.93;99.62
71392;BME280;59205;50.610;12.638;2022-11-20T01:43:34;95034.44;;;-7.95;99.90
71392;BME280;59205;50.610;12.638;2022-11-20T01:46:12;95037.25;;;-8.10;100.00
71392;BME280;59205;50.610;12.638;2022-11-20T01:48:47;95041.72;;;-8.11;100.00
71392;BME280;59205;50.610;12.638;2022-11-20T01:51:39;95035.81;;;-8.04;99.67
71392;BME280;59205;50.610;12.638;2022-11-20T01:54:12;95030.97;;;-8.02;99.46
71392;BME280;59205;50.610;12.638;2022-11-20T01:56:41;95032.19;;;-7.96;99.54
71392;BME280;59205;50.610;12.638;2022-11-20T01:59:09;95024.59;;;-8.01;99.47
71392;BME280;59205;50.610;12.638;2022-11-20T02:01:36;95028.59;;;-8.11;99.13
71392;BME280;59205;50.610;12.638;2022-11-20T02:04:02;95019.59;;;-8.10;99.61
71392;BME280;59205;50.610;12.638;2022-11-20T02:06:31;95031.19;;;-8.14;99.79
71392;BME280;59205;50.610;12.638;2022-11-20T02:08:58;95034.97;;;-8.12;99.58
71392;BME280;59205;50.610;12.638;2022-11-20T02:11:23;95034.72;;;-8.03;99.74
71392;BME280;59205;50.610;12.638;2022-11-20T02:13:49;95024.59;;;-8.01;99.64
71392;BME280;59205;50.610;12.638;2022-11-20T02:16:23;95027.28;;;-7.98;100.00
71392;BME280;59205;50.610;12.638;2022-11-20T02:18:50;95025.44;;;-7.97;99.49
71392;BME280;59205;50.610;12.638;2022-11-20T02:24:10;95015.34;;;-7.92;99.23
71392;BME280;59205;50.610;12.638;2022-11-20T02:27:04;95017.94;;;-7.95;98.72
71392;BME280;59205;50.610;12.638;2022-11-20T02:29:56;95016.84;;;-7.94;99.34
71392;BME280;59205;50.610;12.638;2022-11-20T02:32:30;95012.69;;;-7.95;99.44
71392;BME280;59205;50.610;12.638;2022-11-20T02:34:56;95020.50;;;-7.99;98.89
71392;BME280;59205;50.610;12.638;2022-11-20T02:37:22;95020.16;;;-7.97;99.23
71392;BME280;59205;50.610;12.638;2022-11-20T02:39:50;95017.53;;;-7.97;99.43
71392;BME280;59205;50.610;12.638;2022-11-20T02:42:16;95019.41;;;-7.98;98.97
71392;BME280;59205;50.610;12.638;2022-11-20T02:44:42;95018.69;;;-7.95;99.26
71392;BME280;59205;50.610;12.638;2022-11-20T02:47:07;95017.13;;;-7.99;99.63
71392;BME280;59205;50.610;12.638;2022-11-20T02:49:33;95007.22;;;-8.09;99.65
71392;BME280;59205;50.610;12.638;2022-11-20T02:51:59;95011.03;;;-8.07;99.46
71392;BME280;59205;50.610;12.638;2022-11-20T02:54:24;95014.06;;;-8.05;99.61
71392;BME280;59205;50.610;12.638;2022-11-20T02:56:51;95008.34;;;-8.10;99.86
71392;BME280;59205;50.610;12.638;2022-11-20T02:59:16;95001.59;;;-8.11;99.96
71392;BME280;59205;50.610;12.638;2022-11-20T03:01:42;95005.34;;;-8.09;99.64
71392;BME280;59205;50.610;12.638;2022-11-20T03:04:07;95009.16;;;-8.06;99.65
71392;BME280;59205;50.610;12.638;2022-11-20T03:06:33;95005.41;;;-8.05;100.00
71392;BME280;59205;50.610;12.638;2022-11-20T03:08:58;95007.16;;;-8.16;100.00
71392;BME280;59205;50.610;12.638;2022-11-20T03:11:24;94996.78;;;-8.35;100.00
71392;BME280;59205;50.610;12.638;2022-11-20T03:13:49;95000.28;;;-8.24;100.00
71392;BME280;59205;50.610;12.638;2022-11-20T03:16:18;95003.38;;;-8.19;100.00
71392;BME280;59205;50.610;12.638;2022-11-20T03:18:44;95002.97;;;-7.91;99.87
71392;BME280;59205;50.610;12.638;2022-11-20T03:21:11;94990.56;;;-7.94;99.75
71392;BME280;59205;50.610;12.638;2022-11-20T03:23:37;94996.59;;;-7.90;99.90
71392;BME280;59205;50.610;12.638;2022-11-20T03:28:35;94993.66;;;-7.85;99.75
71392;BME280;59205;50.610;12.638;2022-11-20T03:31:11;94989.97;;;-7.81;99.56
71392;BME280;59205;50.610;12.638;2022-11-20T03:33:38;94988.41;;;-7.85;99.32
71392;BME280;59205;50.610;12.638;2022-11-20T03:36:07;94987.34;;;-7.81;98.90
71392;BME280;59205;50.610;12.638;2022-11-20T03:38:33;94971.44;;;-7.91;98.96
71392;BME280;59205;50.610;12.638;2022-11-20T03:41:03;94974.69;;;-8.01;99.33
71392;BME280;59205;50.610;12.638;2022-11-20T03:43:29;94973.16;;;-8.02;99.69
71392;BME280;59205;50.610;12.638;2022-11-20T03:45:54;94971.56;;;-8.10;99.72
71392;BME280;59205;50.610;12.638;2022-11-20T03:48:20;94962.72;;;-7.99;100.00
71392;BME280;59205;50.610;12.638;2022-11-20T03:50:45;94964.44;;;-8.10;100.00
71392;BME280;59205;50.610;12.638;2022-11-20T03:53:15;94956.59;;;-8.06;99.81
71392;BME280;59205;50.610;12.638;2022-11-20T03:55:41;94966.47;;;-8.29;100.00
71392;BME280;59205;50.610;12.638;2022-11-20T03:58:07;94957.34;;;-8.38;100.00
71392;BME280;59205;50.610;12.638;2022-11-20T04:00:33;94968.63;;;-8.34;100.00
71392;BME280;59205;50.610;12.638;2022-11-20T04:02:59;94960.03;;;-8.02;100.00
71392;BME280;59205;50.610;12.638;2022-11-20T04:05:25;94965.28;;;-8.02;100.00
71392;BME280;59205;50.610;12.638;2022-11-20T04:07:50;94963.25;;;-8.16;100.00
71392;BME280;59205;50.610;12.638;2022-11-20T04:10:16;94959.97;;;-8.09;100.00
71392;BME280;59205;50.610;12.638;2022-11-20T04:12:42;94967.38;;;-8.18;100.00
71392;BME280;59205;50.610;12.638;2022-11-20T04:15:08;94977.84;;;-8.22;100.00
71392;BME280;59205;50.610;12.638;2022-11-20T04:17:33;94985.25;;;-7.98;100.00
71392;BME280;59205;50.610;12.638;2022-11-20T04:19:59;94976.50;;;-8.05;99.92
71392;BME280;59205;50.610;12.638;2022-11-20T04:22:25;94966.09;;;-7.98;100.00
71392;BME280;59205;50.610;12.638;2022-11-20T04:24:50;94980.31;;;-8.03;99.48
71392;BME280;59205;50.610;12.638;2022-11-20T04:27:15;94973.16;;;-8.06;99.48
71392;BME280;59205;50.610;12.638;2022-11-20T04:29:42;94971.63;;;-8.07;100.00
71392;BME280;59205;50.610;12.638;2022-11-20T04:32:08;94974.69;;;-8.01;99.99
71392;BME280;59205;50.610;12.638;2022-11-20T04:34:33;94963.44;;;-8.02;99.74
71392;BME280;59205;50.610;12.638;2022-11-20T04:36:58;94956.28;;;-8.01;100.00
71392;BME280;59205;50.610;12.638;2022-11-20T04:39:24;94959.28;;;-8.03;100.00
71392;BME280;59205;50.610;12.638;2022-11-20T04:41:49;94959.06;;;-8.20;100.00
71392;BME280;59205;50.610;12.638;2022-11-20T04:44:35;94952.47;;;-8.40;100.00
71392;BME280;59205;50.610;12.638;2022-11-20T04:47:00;94953.91;;;-8.13;100.00
71392;BME280;59205;50.610;12.638;2022-11-20T04:49:25;94954.81;;;-7.69;100.00
71392;BME280;59205;50.610;12.638;2022-11-20T04:51:53;94956.81;;;-7.89;100.00
71392;BME280;59205;50.610;12.638;2022-11-20T04:54:19;94947.88;;;-7.84;100.00
71392;BME280;59205;50.610;12.638;2022-11-20T04:56:47;94955.19;;;-8.00;100.00
71392;BME280;59205;50.610;12.638;2022-11-20T04:59:13;94959.69;;;-8.01;100.00
71392;BME280;59205;50.610;12.638;2022-11-20T05:01:38;94957.13;;;-7.97;100.00
71392;BME280;59205;50.610;12.638;2022-11-20T05:04:04;94956.34;;;-7.98;100.00
71392;BME280;59205;50.610;12.638;2022-11-20T05:06:31;94958.56;;;-8.00;100.00
71392;BME280;59205;50.610;12.638;2022-11-20T05:08:57;94949.44;;;-8.09;100.00
71392;BME280;59205;50.610;12.638;2022-11-20T05:11:22;94959.56;;;-8.11;100.00
71392;BME280;59205;50.610;12.638;2022-11-20T05:13:50;94949.13;;;-8.04;100.00
71392;BME280;59205;50.610;12.638;2022-11-20T05:16:18;94948.38;;;-8.05;100.00
71392;BME280;59205;50.610;12.638;2022-11-20T05:18:44;94950.09;;;-8.16;100.00
71392;BME280;59205;50.610;12.638;2022-11-20T05:21:11;94944.91;;;-8.12;100.00
71392;BME280;59205;50.610;12.638;2022-11-20T05:23:37;94941.47;;;-8.20;100.00
71392;BME280;59205;50.610;12.638;2022-11-20T05:26:03;94947.81;;;-8.21;100.00
71392;BME280;59205;50.610;12.638;2022-11-20T05:28:30;94950.78;;;-8.25;100.00
71392;BME280;59205;50.610;12.638;2022-11-20T05:31:11;94941.00;;;-8.25;100.00
71392;BME280;59205;50.610;12.638;2022-11-20T05:33:39;94960.09;;;-8.28;100.00
71392;BME280;59205;50.610;12.638;2022-11-20T05:36:05;94944.59;;;-8.36;100.00
71392;BME280;59205;50.610;12.638;2022-11-20T05:38:31;94949.53;;;-8.35;99.81
71392;BME280;59205;50.610;12.638;2022-11-20T05:41:07;94945.53;;;-8.25;100.00
71392;BME280;59205;50.610;12.638;2022-11-20T05:43:34;94940.94;;;-8.32;100.00
71392;BME280;59205;50.610;12.638;2022-11-20T05:46:00;94926.84;;;-8.17;100.00
71392;BME280;59205;50.610;12.638;2022-11-20T05:48:26;94934.81;;;-8.10;99.93
71392;BME280;59205;50.610;12.638;2022-11-20T05:50:51;94931.25;;;-7.95;100.00
71392;BME280;59205;50.610;12.638;2022-11-20T05:53:17;94924.81;;;-7.98;99.54
71392;BME280;59205;50.610;12.638;2022-11-20T05:55:42;94923.09;;;-8.16;99.88
71392;BME280;59205;50.610;12.638;2022-11-20T05:58:07;94929.06;;;-8.19;99.92
71392;BME280;59205;50.610;12.638;2022-11-20T06:00:33;94922.34;;;-8.17;99.56
71392;BME280;59205;50.610;12.638;2022-11-20T06:02:58;94927.94;;;-8.22;100.00
71392;BME280;59205;50.610;12.638;2022-11-20T06:05:24;94926.63;;;-8.34;99.54
71392;BME280;59205;50.610;12.638;2022-11-20T06:07:49;94932.25;;;-8.36;99.75
71392;BME280;59205;50.610;12.638;2022-11-20T06:10:15;94935.53;;;-8.42;99.66
71392;BME280;59205;50.610;12.638;2022-11-20T06:12:40;94921.28;;;-8.41;99.51
71392;BME280;59205;50.610;12.638;2022-11-20T06:15:06;94932.69;;;-8.30;99.57
71392;BME280;59205;50.610;12.638;2022-11-20T06:17:31;94934.03;;;-8.11;99.55
71392;BME280;59205;50.610;12.638;2022-11-20T06:19:57;94934.16;;;-8.00;99.66
71392;BME280;59205;50.610;12.638;2022-11-20T06:22:22;94931.53;;;-8.00;99.21
71392;BME280;59205;50.610;12.638;2022-11-20T06:24:48;94941.56;;;-8.09;100.00
71392;BME280;59205;50.610;12.638;2022-11-20T06:27:13;94933.41;;;-8.01;99.62
71392;BME280;59205;50.610;12.638;2022-11-20T06:29:39;94935.66;;;-7.99;99.91
71392;BME280;59205;50.610;12.638;2022-11-20T06:32:04;94940.53;;;-8.01;99.48
71392;BME280;59205;50.610;12.638;2022-11-20T06:34:30;94940.63;;;-7.94;99.66
71392;BME280;59205;50.610;12.638;2022-11-20T06:36:55;94938.72;;;-7.97;99.52
71392;BME280;59205;50.610;12.638;2022-11-20T06:39:21;94947.41;;;-7.90;99.51
71392;BME280;59205;50.610;12.638;2022-11-20T06:41:46;94933.88;;;-7.92;99.27
71392;BME280;59205;50.610;12.638;2022-11-20T06:44:11;94940.47;;;-6.52;100.00
71392;BME280;59205;50.610;12.638;2022-11-20T06:46:37;94938.75;;;-4.69;100.00
71392;BME280;59205;50.610;12.638;2022-11-20T06:49:02;94932.19;;;-3.80;99.88
71392;BME280;59205;50.610;12.638;2022-11-20T06:51:28;94935.59;;;-3.87;92.93
71392;BME280;59205;50.610;12.638;2022-11-20T06:53:53;94932.59;;;-3.89;88.30
71392;BME280;59205;50.610;12.638;2022-11-20T06:56:19;94937.13;;;-3.79;86.94
71392;BME280;59205;50.610;12.638;2022-11-20T06:58:44;94924.44;;;-6.26;85.61
71392;BME280;59205;50.610;12.638;2022-11-20T07:01:12;94942.22;;;-7.13;92.04
71392;BME280;59205;50.610;12.638;2022-11-20T07:03:38;94931.28;;;-7.19;94.50
71392;BME280;59205;50.610;12.638;2022-11-20T07:06:05;94932.41;;;-7.16;95.51
71392;BME280;59205;50.610;12.638;2022-11-20T07:08:30;94941.25;;;-6.95;96.32
71392;BME280;59205;50.610;12.638;2022-11-20T07:11:00;94938.56;;;-6.55;95.91
71392;BME280;59205;50.610;12.638;2022-11-20T07:13:27;94952.22;;;-6.36;96.10
71392;BME280;59205;50.610;12.638;2022-11-20T07:15:52;94942.91;;;-6.23;96.59
71392;BME280;59205;50.610;12.638;2022-11-20T07:18:18;94936.56;;;-6.11;96.37
71392;BME280;59205;50.610;12.638;2022-11-20T07:20:44;94935.47;;;-6.03;96.29
71392;BME280;59205;50.610;12.638;2022-11-20T07:23:09;94930.25;;;-5.93;96.44
71392;BME280;59205;50.610;12.638;2022-11-20T07:25:34;94935.56;;;-5.82;96.62
71392;BME280;59205;50.610;12.638;2022-11-20T07:28:01;94929.16;;;-5.71;96.45
71392;BME280;59205;50.610;12.638;2022-11-20T07:30:27;94929.59;;;-5.62;96.93
71392;BME280;59205;50.610;12.638;2022-11-20T07:32:54;94926.53;;;-5.74;97.46
71392;BME280;59205;50.610;12.638;2022-11-20T07:35:20;94926.91;;;-5.72;97.74
71392;BME280;59205;50.610;12.638;2022-11-20T07:37:46;94923.44;;;-6.01;97.02
71392;BME280;59205;50.610;12.638;2022-11-20T07:40:16;94923.19;;;-6.46;97.34
71392;BME280;59205;50.610;12.638;2022-11-20T07:42:53;94930.66;;;-6.55;98.23
71392;BME280;59205;50.610;12.638;2022-11-20T07:45:21;94921.34;;;-6.39;98.57
71392;BME280;59205;50.610;12.638;2022-11-20T07:47:47;94921.94;;;-6.02;98.99
71392;BME280;59205;50.610;12.638;2022-11-20T07:50:13;94928.03;;;-5.80;98.99
71392;BME280;59205;50.610;12.638;2022-11-20T07:52:39;94926.94;;;-5.62;98.70
71392;BME280;59205;50.610;12.638;2022-11-20T07:55:05;94922.84;;;-5.38;99.07
71392;BME280;59205;50.610;12.638;2022-11-20T07:57:31;94922.09;;;-5.42;99.22
71392;BME280;59205;50.610;12.638;2022-11-20T07:59:56;94920.22;;;-5.42;99.51
71392;BME280;59205;50.610;12.638;2022-11-20T08:02:22;94919.06;;;-5.55;100.00
71392;BME280;59205;50.610;12.638;2022-11-20T08:04:47;94922.13;;;-5.32;100.00
71392;BME280;59205;50.610;12.638;2022-11-20T08:07:13;94925.91;;;-5.05;100.00
71392;BME280;59205;50.610;12.638;2022-11-20T08:09:38;94918.38;;;-4.72;100.00
71392;BME280;59205;50.610;12.638;2022-11-20T08:12:04;94922.91;;;-4.97;100.00
71392;BME280;59205;50.610;12.638;2022-11-20T08:14:47;94925.97;;;-4.77;99.90
71392;BME280;59205;50.610;12.638;2022-11-20T08:17:13;94919.53;;;-4.55;100.00
71392;BME280;59205;50.610;12.638;2022-11-20T08:19:38;94919.47;;;-4.31;100.00
71392;BME280;59205;50.610;12.638;2022-11-20T08:22:04;94928.91;;;-4.19;100.00
71392;BME280;59205;50.610;12.638;2022-11-20T08:24:29;94919.00;;;-3.87;100.00
71392;BME280;59205;50.610;12.638;2022-11-20T08:26:59;94913.22;;;-3.61;100.00
71392;BME280;59205;50.610;12.638;2022-11-20T08:29:26;94912.03;;;-3.46;100.00
71392;BME280;59205;50.610;12.638;2022-11-20T08:31:52;94901.38;;;-3.36;100.00
71392;BME280;59205;50.610;12.638;2022-11-20T08:34:17;94896.03;;;-3.33;100.00
71392;BME280;59205;50.610;12.638;2022-11-20T08:36:42;94903.50;;;-3.14;100.00
71392;BME280;59205;50.610;12.638;2022-11-20T08:39:11;94912.09;;;-2.99;100.00
71392;BME280;59205;50.610;12.638;2022-11-20T08:41:37;94909.75;;;-2.87;100.00
71392;BME280;59205;50.610;12.638;2022-11-20T08:44:03;94916.78;;;-2.66;100.00
71392;BME280;59205;50.610;12.638;2022-11-20T08:46:34;94915.94;;;-2.56;100.00
71392;BME280;59205;50.610;12.638;2022-11-20T08:49:03;94910.63;;;-2.53;100.00
71392;BME280;59205;50.610;12.638;2022-11-20T08:51:29;94901.78;;;-2.39;100.00
71392;BME280;59205;50.610;12.638;2022-11-20T08:53:54;94914.09;;;-2.19;100.00
71392;BME280;59205;50.610;12.638;2022-11-20T08:56:20;94912.03;;;-2.01;100.00
71392;BME280;59205;50.610;12.638;2022-11-20T08:58:45;94903.94;;;-1.90;100.00
71392;BME280;59205;50.610;12.638;2022-11-20T09:01:11;94895.09;;;-2.14;100.00
71392;BME280;59205;50.610;12.638;2022-11-20T09:03:36;94894.72;;;-1.79;100.00
71392;BME280;59205;50.610;12.638;2022-11-20T09:06:06;94889.44;;;-1.53;100.00
71392;BME280;59205;50.610;12.638;2022-11-20T09:08:32;94896.31;;;-1.55;100.00
71392;BME280;59205;50.610;12.638;2022-11-20T09:10:59;94897.41;;;-1.53;100.00
71392;BME280;59205;50.610;12.638;2022-11-20T09:13:26;94902.06;;;-1.30;100.00
71392;BME280;59205;50.610;12.638;2022-11-20T09:15:53;94910.91;;;-1.10;100.00
71392;BME280;59205;50.610;12.638;2022-11-20T09:18:20;94902.97;;;-1.14;100.00
71392;BME280;59205;50.610;12.638;2022-11-20T09:20:46;94903.75;;;-1.13;100.00
71392;BME280;59205;50.610;12.638;2022-11-20T09:23:12;94895.47;;;-1.19;100.00
71392;BME280;59205;50.610;12.638;2022-11-20T09:25:37;94886.03;;;-0.97;100.00
71392;BME280;59205;50.610;12.638;2022-11-20T09:28:03;94892.81;;;-0.92;100.00
71392;BME280;59205;50.610;12.638;2022-11-20T09:30:29;94892.91;;;-0.76;100.00
71392;BME280;59205;50.610;12.638;2022-11-20T09:32:56;94896.19;;;-0.65;100.00
71392;BME280;59205;50.610;12.638;2022-11-20T09:35:22;94896.56;;;-0.67;100.00
71392;BME280;59205;50.610;12.638;2022-11-20T09:37:47;94886.88;;;-0.54;100.00
71392;BME280;59205;50.610;12.638;2022-11-20T09:40:27;94886.44;;;-0.75;100.00
71392;BME280;59205;50.610;12.638;2022-11-20T09:51:37;94896.31;;;-0.49;100.00
71392;BME280;59205;50.610;12.638;2022-11-20T09:54:18;94897.22;;;-0.36;100.00
71392;BME280;59205;50.610;12.638;2022-11-20T09:56:48;94893.88;;;-0.40;100.00
71392;BME280;59205;50.610;12.638;2022-11-20T09:59:32;94900.91;;;-0.53;100.00
71392;BME280;59205;50.610;12.638;2022-11-20T10:02:00;94899.63;;;-0.42;100.00
71392;BME280;59205;50.610;12.638;2022-11-20T10:04:29;94895.38;;;-0.39;100.00
71392;BME280;59205;50.610;12.638;2022-11-20T10:09:31;94881.03;;;-0.22;100.00
71392;BME280;59205;50.610;12.638;2022-11-20T10:29:00;94879.56;;;-0.27;100.00
71392;BME280;59205;50.610;12.638;2022-11-20T10:32:14;94886.16;;;-0.12;100.00
71392;BME280;59205;50.610;12.638;2022-11-20T10:36:52;94890.63;;;-0.28;100.00
71392;BME280;59205;50.610;12.638;2022-11-20T10:41:54;94885.19;;;-0.44;100.00
71392;BME280;59205;50.610;12.638;2022-11-20T10:44:24;94889.41;;;-0.47;100.00
71392;BME280;59205;50.610;12.638;2022-11-20T10:47:15;94884.56;;;-0.52;100.00
71392;BME280;59205;50.610;12.638;2022-11-20T10:49:52;94889.72;;;-0.41;100.00
71392;BME280;59205;50.610;12.638;2022-11-20T11:00:30;94873.63;;;-0.34;100.00
71392;BME280;59205;50.610;12.638;2022-11-20T11:02:58;94865.97;;;-0.32;100.00
71392;BME280;59205;50.610;12.638;2022-11-20T11:06:08;94867.38;;;-0.24;100.00
71392;BME280;59205;50.610;12.638;2022-11-20T11:08:39;94861.03;;;-0.30;100.00
71392;BME280;59205;50.610;12.638;2022-11-20T11:11:21;94851.16;;;-0.10;100.00
71392;BME280;59205;50.610;12.638;2022-11-20T11:13:47;94855.72;;;-0.11;100.00
71392;BME280;59205;50.610;12.638;2022-11-20T11:16:25;94864.09;;;-0.12;100.00
71392;BME280;59205;50.610;12.638;2022-11-20T11:18:51;94865.78;;;-0.22;100.00
71392;BME280;59205;50.610;12.638;2022-11-20T11:21:23;94862.06;;;-0.24;100.00
71392;BME280;59205;50.610;12.638;2022-11-20T11:23:59;94860.41;;;-0.18;100.00
71392;BME280;59205;50.610;12.638;2022-11-20T11:26:25;94865.00;;;-0.19;100.00
71392;BME280;59205;50.610;12.638;2022-11-20T11:31:31;94851.69;;;-0.19;100.00
71392;BME280;59205;50.610;12.638;2022-11-20T11:34:14;94855.78;;;-0.14;100.00
71392;BME280;59205;50.610;12.638;2022-11-20T11:36:40;94845.94;;;-0.17;100.00
71392;BME280;59205;50.610;12.638;2022-11-20T11:39:11;94856.94;;;-0.15;100.00
71392;BME280;59205;50.610;12.638;2022-11-20T11:41:40;94858.22;;;-0.23;100.00
71392;BME280;59205;50.610;12.638;2022-11-20T11:44:18;94855.47;;;-0.39;100.00
71392;BME280;59205;50.610;12.638;2022-11-20T11:47:04;94852.34;;;-0.34;100.00
71392;BME280;59205;50.610;12.638;2022-11-20T11:49:31;94836.81;;;-0.16;100.00
71392;BME280;59205;50.610;12.638;2022-11-20T11:52:02;94835.56;;;-0.31;100.00
71392;BME280;59205;50.610;12.638;2022-11-20T11:57:05;94843.56;;;-0.31;100.00
71392;BME280;59205;50.610;12.638;2022-11-20T11:59:59;94837.31;;;-0.44;100.00
71392;BME280;59205;50.610;12.638;2022-11-20T12:02:34;94841.88;;;-0.45;100.00
71392;BME280;59205;50.610;12.638;2022-11-20T12:05:13;94836.91;;;-0.43;100.00
71392;BME280;59205;50.610;12.638;2022-11-20T12:07:45;94833.03;;;-0.38;100.00
71392;BME280;59205;50.610;12.638;2022-11-20T12:10:53;94838.88;;;-0.47;100.00
71392;BME280;59205;50.610;12.638;2022-11-20T12:16:27;94828.91;;;-0.43;100.00
71392;BME280;59205;50.610;12.638;2022-11-20T12:18:55;94837.38;;;-0.48;100.00
71392;BME280;59205;50.610;12.638;2022-11-20T12:21:32;94828.22;;;-0.47;100.00
71392;BME280;59205;50.610;12.638;2022-11-20T12:40:04;94825.41;;;-0.17;100.00
71392;BME280;59205;50.610;12.638;2022-11-20T12:42:57;94837.56;;;-0.16;100.00
71392;BME280;59205;50.610;12.638;2022-11-20T12:46:12;94825.47;;;-0.20;100.00
71392;BME280;59205;50.610;12.638;2022-11-20T12:56:39;94814.50;;;0.16;100.00
71392;BME280;59205;50.610;12.638;2022-11-20T13:02:05;94812.84;;;0.22;100.00
71392;BME280;59205;50.610;12.638;2022-11-20T13:07:06;94808.06;;;0.14;100.00
71392;BME280;59205;50.610;12.638;2022-11-20T13:09:36;94808.69;;;0.21;100.00
71392;BME280;59205;50.610;12.638;2022-11-20T13:14:40;94816.47;;;0.12;100.00
71392;BME280;59205;50.610;12.638;2022-11-20T13:17:24;94803.16;;;0.12;100.00
71392;BME280;59205;50.610;12.638;2022-11-20T13:19:55;94794.81;;;0.10;100.00
71392;BME280;59205;50.610;12.638;2022-11-20T13:22:26;94802.81;;;0.10;100.00
71392;BME280;59205;50.610;12.638;2022-11-20T13:24:51;94799.13;;;0.04;100.00
71392;BME280;59205;50.610;12.638;2022-11-20T13:27:20;94801.38;;;0.06;100.00
71392;BME280;59205;50.610;12.638;2022-11-20T13:29:59;94801.38;;;0.06;100.00
71392;BME280;59205;50.610;12.638;2022-11-20T13:32:26;94802.75;;;0.14;100.00
71392;BME280;59205;50.610;12.638;2022-11-20T13:35:03;94808.41;;;0.16;100.00
71392;BME280;59205;50.610;12.638;2022-11-20T13:37:30;94800.84;;;0.14;100.00
71392;BME280;59205;50.610;12.638;2022-11-20T13:40:11;94808.00;;;0.17;100.00
71392;BME280;59205;50.610;12.638;2022-11-20T13:42:55;94815.72;;;0.12;100.00
71392;BME280;59205;50.610;12.638;2022-11-20T13:45:26;94820.38;;;0.08;100.00
71392;BME280;59205;50.610;12.638;2022-11-20T13:47:53;94814.75;;;0.02;100.00
71392;BME280;59205;50.610;12.638;2022-11-20T14:01:44;94810.75;;;-0.05;100.00
71392;BME280;59205;50.610;12.638;2022-11-20T14:04:17;94813.19;;;-0.14;100.00
71392;BME280;59205;50.610;12.638;2022-11-20T14:06:46;94820.72;;;-0.09;100.00
71392;BME280;59205;50.610;12.638;2022-11-20T14:09:24;94808.22;;;-0.12;100.00
71392;BME280;59205;50.610;12.638;2022-11-20T14:11:50;94817.69;;;-0.11;100.00
71392;BME280;59205;50.610;12.638;2022-11-20T14:14:21;94811.56;;;-0.08;100.00
71392;BME280;59205;50.610;12.638;2022-11-20T14:16:48;94808.47;;;-0.07;100.00
71392;BME280;59205;50.610;12.638;2022-11-20T14:19:34;94814.69;;;-0.13;100.00
71392;BME280;59205;50.610;12.638;2022-11-20T14:22:24;94812.38;;;-0.11;100.00
71392;BME280;59205;50.610;12.638;2022-11-20T14:25:14;94824.53;;;-0.10;100.00
71392;BME280;59205;50.610;12.638;2022-11-20T14:27:46;94819.28;;;-0.14;100.00
71392;BME280;59205;50.610;12.638;2022-11-20T14:30:18;94816.13;;;-0.09;100.00